createdAt,value
2019-03-22T00:02:53.621Z,19.30
2019-03-22T00:07:58.841Z,19.13
2019-03-22T00:13:05.051Z,19.33
2019-03-22T00:18:10.264Z,19.73
2019-03-22T00:23:15.582Z,19.98
2019-03-22T00:28:20.822Z,19.90
2019-03-22T00:33:26.029Z,19.47
2019-03-22T00:38:31.249Z,19.70
2019-03-22T00:43:36.547Z,20.33
2019-03-22T00:48:41.758Z,19.43
2019-03-22T00:53:46.981Z,19.93
2019-03-22T00:58:52.198Z,19.83
2019-03-22T01:03:57.496Z,19.43
2019-03-22T01:09:02.928Z,19.50
2019-03-22T01:14:09.203Z,19.50
2019-03-22T01:19:14.423Z,18.77
2019-03-22T01:24:19.720Z,21.13
2019-03-22T01:29:24.980Z,21.47
2019-03-22T01:34:30.179Z,19.63
2019-03-22T01:39:35.419Z,21.30
2019-03-22T01:44:40.694Z,19.97
2019-03-22T01:49:45.928Z,21.13
2019-03-22T01:54:51.170Z,20.57
2019-03-22T01:59:56.446Z,20.83
2019-03-22T02:05:01.855Z,22.57
2019-03-22T02:15:41.857Z,21.17
2019-03-22T02:20:47.086Z,21.03
2019-03-22T02:25:52.340Z,22.20
2019-03-22T02:30:57.575Z,21.10
2019-03-22T02:36:03.073Z,21.20
2019-03-22T02:41:08.275Z,22.37
2019-03-22T02:46:13.651Z,20.53
2019-03-22T02:51:19.859Z,20.17
2019-03-22T02:56:25.217Z,22.03
2019-03-22T03:01:30.651Z,21.37
2019-03-22T03:06:35.968Z,20.07
2019-03-22T03:11:41.358Z,20.53
2019-03-22T03:16:46.859Z,20.57
2019-03-22T03:21:52.340Z,20.30
2019-03-22T03:26:57.700Z,20.77
2019-03-22T03:32:02.971Z,20.17
2019-03-22T03:37:08.229Z,20.83
2019-03-22T03:42:13.390Z,19.73
2019-03-22T03:47:18.652Z,20.87
2019-03-22T03:52:23.950Z,22.23
2019-03-22T03:57:29.237Z,20.70
2019-03-22T04:02:34.461Z,20.10
2019-03-22T04:07:39.661Z,20.83
2019-03-22T04:12:44.958Z,21.37
2019-03-22T04:17:50.243Z,22.83
2019-03-22T04:22:55.492Z,20.70
2019-03-22T04:28:00.802Z,21.40
2019-03-22T04:33:06.919Z,24.57
2019-03-22T04:38:12.301Z,22.13
2019-03-22T04:43:17.529Z,23.27
2019-03-22T04:48:28.408Z,23.18
2019-03-22T04:53:38.022Z,22.80
2019-03-22T04:58:46.863Z,27.33
2019-03-22T05:03:53.618Z,28.27
2019-03-22T05:09:00.896Z,25.10
2019-03-22T05:14:07.685Z,24.43
2019-03-22T05:19:14.181Z,26.15
2019-03-22T05:24:22.077Z,26.70
2019-03-22T05:29:31.134Z,29.20
2019-03-22T05:34:36.633Z,30.20
2019-03-22T05:39:42.041Z,29.33
2019-03-22T05:44:47.515Z,29.30
2019-03-22T05:49:52.814Z,29.27
2019-03-22T05:54:58.263Z,28.93
2019-03-22T06:00:04.379Z,27.30
2019-03-22T06:05:09.917Z,27.27
2019-03-22T06:10:15.405Z,26.30
2019-03-22T06:15:20.606Z,25.60
2019-03-22T06:20:26.115Z,24.37
2019-03-22T06:25:31.567Z,26.27
2019-03-22T06:30:36.993Z,25.27
2019-03-22T06:35:42.331Z,25.67
2019-03-22T06:40:47.810Z,27.17
2019-03-22T06:45:53.369Z,26.43
2019-03-22T06:50:58.928Z,27.17
2019-03-22T06:56:05.408Z,25.23
2019-03-22T07:01:10.873Z,28.42
2019-03-22T07:06:16.331Z,26.60
2019-03-22T07:11:21.808Z,27.30
2019-03-22T07:16:27.258Z,26.43
2019-03-22T07:21:32.961Z,23.77
2019-03-22T07:26:38.606Z,24.67
2019-03-22T07:31:44.051Z,24.43
2019-03-22T07:36:49.739Z,23.57
2019-03-22T07:41:55.273Z,25.30
2019-03-22T07:47:00.726Z,25.10
2019-03-22T07:52:06.288Z,25.90
2019-03-22T07:57:12.230Z,24.97
2019-03-22T08:02:17.614Z,23.13
2019-03-22T08:07:23.019Z,24.40
2019-03-22T08:12:28.362Z,24.37
2019-03-22T08:17:33.734Z,26.03
2019-03-22T08:22:39.252Z,26.13
2019-03-22T08:27:44.770Z,25.80
2019-03-22T08:32:50.573Z,27.33
2019-03-22T08:37:56.016Z,25.50
2019-03-22T08:43:01.367Z,26.47
2019-03-22T08:48:06.639Z,27.55
2019-03-22T08:53:11.926Z,27.43
2019-03-22T08:58:18.781Z,25.57
2019-03-22T09:03:24.164Z,26.07
2019-03-22T09:08:29.484Z,26.85
2019-03-22T09:13:34.750Z,26.10
2019-03-22T09:18:40.011Z,25.25
2019-03-22T09:23:45.292Z,25.30
2019-03-22T09:28:50.494Z,23.90
2019-03-22T09:33:55.793Z,25.37
2019-03-22T09:39:05.798Z,24.77
2019-03-22T09:44:13.880Z,24.77
2019-03-22T09:49:19.160Z,25.07
2019-03-22T09:54:24.404Z,22.83
2019-03-22T09:59:29.671Z,23.33
2019-03-22T10:04:34.965Z,24.57
2019-03-22T10:09:40.474Z,21.95
2019-03-22T10:14:46.041Z,21.73
2019-03-22T10:19:51.534Z,21.50
2019-03-22T10:24:56.975Z,21.93
2019-03-22T10:30:02.824Z,21.50
2019-03-22T10:35:08.686Z,21.43
2019-03-22T10:40:14.500Z,19.57
2019-03-22T10:45:19.961Z,17.37
2019-03-22T10:50:25.460Z,19.07
2019-03-22T10:55:31.004Z,18.82
2019-03-22T11:00:36.450Z,18.97
2019-03-22T11:05:41.677Z,20.52
2019-03-22T11:10:46.895Z,22.73
2019-03-22T11:15:52.160Z,20.68
2019-03-22T11:21:05.101Z,20.97
2019-03-22T11:26:05.316Z,21.68
2019-03-22T11:31:10.600Z,20.32
2019-03-22T11:36:15.831Z,21.17
2019-03-22T11:41:21.128Z,20.87
2019-03-22T11:46:26.497Z,20.10
2019-03-22T11:51:31.777Z,20.27
2019-03-22T11:56:37.980Z,21.20
2019-03-22T12:01:43.638Z,20.08
2019-03-22T12:06:48.934Z,21.33
2019-03-22T12:11:54.524Z,20.67
2019-03-22T12:16:59.825Z,19.40
2019-03-22T12:22:05.427Z,18.60
2019-03-22T12:27:10.746Z,18.67
2019-03-22T12:32:16.107Z,18.60
2019-03-22T12:37:21.389Z,19.35
2019-03-22T12:42:26.716Z,17.50
2019-03-22T12:47:32.005Z,19.50
2019-03-22T12:52:37.289Z,19.57
2019-03-22T12:57:42.580Z,20.82
2019-03-22T13:02:47.933Z,18.50
2019-03-22T13:07:53.563Z,19.80
2019-03-22T13:12:58.780Z,19.42
2019-03-22T13:18:05.022Z,19.65
2019-03-22T13:23:10.395Z,20.77
2019-03-22T13:28:15.789Z,21.07
2019-03-22T13:33:21.427Z,20.93
2019-03-22T13:38:28.219Z,21.23
2019-03-22T13:43:33.616Z,20.37
2019-03-22T13:48:38.846Z,19.57
2019-03-22T13:53:45.196Z,20.43
2019-03-22T13:58:50.424Z,19.40
2019-03-22T14:03:55.739Z,19.35
2019-03-22T14:09:01.036Z,19.75
2019-03-22T14:14:07.743Z,19.40
2019-03-22T14:19:12.960Z,18.98
2019-03-22T14:24:19.158Z,18.77
2019-03-22T14:29:24.776Z,18.83
2019-03-22T14:34:30.254Z,18.73
2019-03-22T14:39:35.923Z,19.53
2019-03-22T14:44:41.435Z,18.25
2019-03-22T14:49:47.057Z,18.75
2019-03-22T14:54:53.728Z,19.35
2019-03-22T14:59:59.447Z,20.08
2019-03-22T15:05:07.252Z,17.62
2019-03-22T15:10:13.207Z,18.00
2019-03-22T15:15:31.948Z,16.35
2019-03-22T15:20:54.973Z,18.17
2019-03-22T15:26:18.211Z,16.87
2019-03-22T15:31:41.560Z,15.53
2019-03-22T15:37:10.576Z,16.20
2019-03-22T15:42:16.172Z,15.03
2019-03-22T15:47:21.800Z,15.83
2019-03-22T15:52:27.385Z,15.85
2019-03-22T15:57:34.213Z,15.25
2019-03-22T16:02:40.696Z,15.20
2019-03-22T16:07:47.062Z,14.73
2019-03-22T16:12:52.566Z,15.23
2019-03-22T16:17:58.182Z,15.35
2019-03-22T16:23:03.868Z,15.05
2019-03-22T16:28:09.322Z,15.28
2019-03-22T16:33:14.785Z,15.30
2019-03-22T16:38:20.288Z,15.10
2019-03-22T16:43:26.445Z,15.18
2019-03-22T16:48:32.087Z,14.45
2019-03-22T16:53:37.609Z,14.80
2019-03-22T16:58:42.904Z,14.83
2019-03-22T17:03:49.222Z,15.38
2019-03-22T17:08:55.437Z,14.93
2019-03-22T17:14:00.700Z,14.18
2019-03-22T17:19:06.293Z,14.45
2019-03-22T17:24:11.771Z,15.37
2019-03-22T17:29:16.978Z,15.53
2019-03-22T17:34:22.289Z,15.18
2019-03-22T17:39:27.508Z,16.65
2019-03-22T17:44:32.715Z,16.12
2019-03-22T17:49:47.569Z,16.40
2019-03-22T17:54:45.104Z,15.72
2019-03-22T17:59:50.314Z,15.78
2019-03-22T18:04:55.546Z,16.20
2019-03-22T18:10:00.785Z,16.70
2019-03-22T18:15:08.645Z,16.07
2019-03-22T18:20:14.166Z,17.50
2019-03-22T18:25:19.352Z,16.48
2019-03-22T18:30:24.589Z,18.70
2019-03-22T18:35:29.838Z,17.73
2019-03-22T18:40:35.446Z,17.90
2019-03-22T18:45:40.691Z,18.87
2019-03-22T18:50:55.949Z,20.17
2019-03-22T18:55:52.802Z,18.63
2019-03-22T19:00:58.085Z,20.00
2019-03-22T19:06:05.065Z,20.27
2019-03-22T19:11:10.276Z,19.97
2019-03-22T19:16:15.472Z,20.88
2019-03-22T19:21:20.796Z,20.70
2019-03-22T19:26:26.036Z,21.10
2019-03-22T19:31:31.324Z,21.47
2019-03-22T19:36:36.524Z,23.90
2019-03-22T19:41:41.775Z,23.50
2019-03-22T19:46:47.040Z,22.87
2019-03-22T19:51:52.275Z,23.37
2019-03-22T19:56:57.822Z,23.57
2019-03-22T20:02:03.116Z,24.20
2019-03-22T20:07:08.411Z,24.57
2019-03-22T20:12:13.728Z,23.27
2019-03-22T20:17:18.956Z,23.53
2019-03-22T20:22:24.198Z,24.33
2019-03-22T20:27:29.615Z,23.73
2019-03-22T20:32:34.983Z,24.43
2019-03-22T20:37:40.466Z,24.03
2019-03-22T20:42:45.737Z,25.00
2019-03-22T20:47:51.117Z,24.73
2019-03-22T20:52:56.355Z,23.45
2019-03-22T20:58:01.661Z,26.73
2019-03-22T21:03:07.037Z,25.02
2019-03-22T21:08:12.507Z,26.23
2019-03-22T21:13:17.732Z,25.70
2019-03-22T21:18:23.020Z,24.87
2019-03-22T21:23:35.934Z,26.60
2019-03-22T21:28:35.231Z,25.53
2019-03-22T21:33:40.849Z,26.50
2019-03-22T21:38:46.425Z,26.00
2019-03-22T21:43:51.751Z,25.37
2019-03-22T21:48:57.059Z,26.03
2019-03-22T21:54:02.293Z,24.23
2019-03-22T21:59:07.516Z,27.10
2019-03-22T22:04:12.745Z,25.08
2019-03-22T22:09:17.998Z,24.93
2019-03-22T22:14:23.201Z,24.30
2019-03-22T22:19:28.492Z,24.50
2019-03-22T22:24:33.712Z,25.73
2019-03-22T22:29:39.322Z,25.37
2019-03-22T22:34:44.528Z,26.60
2019-03-22T22:39:49.735Z,25.10
2019-03-22T22:44:54.960Z,24.63
2019-03-22T22:50:18.386Z,26.33
2019-03-22T22:55:23.684Z,25.97
2019-03-22T23:00:29.511Z,25.17
2019-03-22T23:05:36.376Z,24.67
2019-03-22T23:10:41.596Z,26.07
2019-03-22T23:15:46.908Z,26.03
2019-03-22T23:20:52.236Z,26.07
2019-03-22T23:25:57.432Z,26.23
2019-03-22T23:31:03.104Z,25.47
2019-03-22T23:36:19.570Z,27.55
2019-03-22T23:41:16.196Z,28.33
2019-03-22T23:46:21.379Z,27.25
2019-03-22T23:51:26.921Z,27.40
2019-03-22T23:56:32.141Z,28.57
